createdAt,value
2018-10-05T00:01:38.380Z,10.05
2018-10-05T00:04:05.759Z,9.83
2018-10-05T00:06:33.063Z,10.05
2018-10-05T00:09:00.428Z,11.73
2018-10-05T00:11:27.763Z,10.35
2018-10-05T00:13:55.123Z,11.38
2018-10-05T00:16:22.517Z,10.35
2018-10-05T00:18:49.847Z,9.90
2018-10-05T00:21:17.291Z,10.88
2018-10-05T00:23:44.690Z,11.80
2018-10-05T00:26:12.146Z,11.30
2018-10-05T00:28:39.535Z,10.85
2018-10-05T00:31:07.101Z,10.95
2018-10-05T00:33:34.419Z,11.85
2018-10-05T00:36:01.763Z,10.18
2018-10-05T00:38:29.150Z,10.38
2018-10-05T00:40:58.762Z,10.80
2018-10-05T00:43:26.060Z,10.55
2018-10-05T00:45:53.450Z,10.35
2018-10-05T00:48:20.754Z,11.35
2018-10-05T00:50:48.082Z,10.43
2018-10-05T00:53:15.421Z,10.95
2018-10-05T00:55:42.740Z,9.80
2018-10-05T00:58:10.098Z,10.25
2018-10-05T01:00:37.480Z,11.10
2018-10-05T01:03:04.809Z,10.70
2018-10-05T01:05:32.212Z,10.55
2018-10-05T01:07:59.720Z,10.50
2018-10-05T01:10:27.000Z,9.88
2018-10-05T01:12:54.303Z,10.25
2018-10-05T01:15:21.676Z,10.25
2018-10-05T01:17:48.982Z,9.83
2018-10-05T01:20:16.421Z,9.53
2018-10-05T01:22:43.867Z,10.45
2018-10-05T01:25:11.186Z,11.40
2018-10-05T01:27:38.760Z,10.40
2018-10-05T01:30:10.154Z,11.57
2018-10-05T01:32:37.531Z,10.58
2018-10-05T01:35:04.835Z,10.45
2018-10-05T01:37:32.130Z,10.08
2018-10-05T01:39:59.442Z,10.90
2018-10-05T01:42:26.727Z,10.60
2018-10-05T01:44:54.051Z,9.43
2018-10-05T01:47:21.357Z,10.03
2018-10-05T01:49:48.667Z,8.70
2018-10-05T01:52:16.490Z,9.55
2018-10-05T01:54:43.839Z,9.53
2018-10-05T01:57:11.141Z,9.23
2018-10-05T01:59:38.550Z,9.35
2018-10-05T02:02:05.911Z,8.80
2018-10-05T02:04:33.264Z,8.90
2018-10-05T02:07:00.542Z,10.03
2018-10-05T02:09:27.896Z,8.83
2018-10-05T02:11:55.178Z,9.40
2018-10-05T02:14:22.470Z,9.90
2018-10-05T02:16:50.281Z,8.38
2018-10-05T02:19:17.592Z,9.20
2018-10-05T02:21:44.902Z,9.20
2018-10-05T02:24:12.203Z,9.00
2018-10-05T02:26:39.734Z,9.65
2018-10-05T02:29:07.075Z,9.35
2018-10-05T02:31:34.366Z,9.23
2018-10-05T02:34:01.677Z,8.60
2018-10-05T02:36:28.986Z,8.28
2018-10-05T02:38:56.283Z,9.55
2018-10-05T02:41:23.579Z,9.55
2018-10-05T02:43:50.919Z,9.45
2018-10-05T02:46:18.278Z,8.93
2018-10-05T02:48:45.563Z,9.73
2018-10-05T02:51:12.903Z,8.43
2018-10-05T02:53:40.221Z,9.00
2018-10-05T02:56:07.580Z,9.63
2018-10-05T02:58:34.927Z,8.55
2018-10-05T03:01:07.779Z,10.72
2018-10-05T03:03:35.119Z,10.50
2018-10-05T03:06:02.441Z,9.40
2018-10-05T03:08:29.759Z,8.85
2018-10-05T03:10:57.083Z,9.58
2018-10-05T03:13:24.405Z,9.80
2018-10-05T03:15:51.699Z,9.68
2018-10-05T03:18:19.056Z,8.48
2018-10-05T03:20:46.415Z,9.78
2018-10-05T03:23:13.962Z,9.93
2018-10-05T03:25:41.329Z,9.30
2018-10-05T03:28:08.646Z,9.40
2018-10-05T03:30:35.978Z,11.05
2018-10-05T03:33:03.273Z,8.95
2018-10-05T03:35:30.586Z,10.68
2018-10-05T03:37:57.915Z,9.35
2018-10-05T03:40:25.247Z,8.60
2018-10-05T03:42:52.513Z,8.43
2018-10-05T03:45:19.791Z,9.20
2018-10-05T03:47:47.114Z,9.20
2018-10-05T03:50:14.458Z,9.65
2018-10-05T03:52:41.773Z,9.50
2018-10-05T03:55:09.147Z,9.33
2018-10-05T03:57:36.457Z,10.05
2018-10-05T04:00:03.811Z,10.30
2018-10-05T04:02:31.762Z,8.68
2018-10-05T04:04:59.073Z,8.83
2018-10-05T04:07:26.416Z,9.13
2018-10-05T04:09:53.761Z,8.98
2018-10-05T04:12:21.092Z,9.33
2018-10-05T04:14:48.401Z,9.10
2018-10-05T04:17:15.835Z,8.90
2018-10-05T04:19:43.175Z,9.73
2018-10-05T04:22:10.635Z,9.45
2018-10-05T04:24:37.991Z,8.98
2018-10-05T04:27:05.330Z,10.05
2018-10-05T04:29:32.892Z,9.60
2018-10-05T04:32:00.182Z,8.90
2018-10-05T04:34:27.488Z,10.48
2018-10-05T04:36:54.805Z,10.30
2018-10-05T04:39:22.101Z,9.23
2018-10-05T04:41:49.471Z,9.75
2018-10-05T04:44:16.835Z,9.28
2018-10-05T04:46:45.155Z,8.80
2018-10-05T04:49:12.662Z,10.18
2018-10-05T04:51:40.003Z,9.70
2018-10-05T04:54:07.365Z,10.55
2018-10-05T04:56:34.701Z,10.10
2018-10-05T04:59:02.043Z,10.23
2018-10-05T05:01:29.376Z,10.50
2018-10-05T05:03:57.507Z,10.40
2018-10-05T05:06:26.300Z,9.80
2018-10-05T05:08:56.023Z,9.15
2018-10-05T05:11:23.500Z,10.00
2018-10-05T05:13:56.191Z,10.80
2018-10-05T05:16:24.082Z,12.82
2018-10-05T05:18:52.054Z,10.60
2018-10-05T05:21:19.406Z,10.40
2018-10-05T05:23:46.967Z,9.48
2018-10-05T05:26:14.396Z,9.90
2018-10-05T05:28:42.921Z,10.53
2018-10-05T05:31:11.694Z,10.75
2018-10-05T05:33:40.608Z,11.08
2018-10-05T05:36:08.111Z,9.48
2018-10-05T05:38:35.987Z,9.95
2018-10-05T05:41:03.461Z,9.45
2018-10-05T05:43:31.143Z,10.43
2018-10-05T05:45:58.891Z,11.08
2018-10-05T05:48:26.206Z,9.70
2018-10-05T05:50:53.518Z,9.23
2018-10-05T05:53:20.902Z,10.40
2018-10-05T05:55:48.463Z,9.10
2018-10-05T05:58:16.318Z,9.65
2018-10-05T06:00:44.057Z,9.48
2018-10-05T06:03:11.415Z,10.63
2018-10-05T06:05:38.988Z,10.25
2018-10-05T06:08:06.761Z,9.58
2018-10-05T06:10:37.384Z,9.10
2018-10-05T06:13:06.252Z,9.80
2018-10-05T06:15:33.603Z,9.10
2018-10-05T06:18:01.031Z,10.30
2018-10-05T06:20:28.416Z,9.13
2018-10-05T06:22:56.035Z,9.25
2018-10-05T06:25:23.444Z,9.65
2018-10-05T06:27:51.007Z,10.20
2018-10-05T06:30:18.687Z,10.30
2018-10-05T06:32:46.289Z,9.88
2018-10-05T06:35:13.605Z,8.63
2018-10-05T06:37:41.175Z,9.13
2018-10-05T06:40:08.501Z,9.23
2018-10-05T06:42:35.913Z,10.30
2018-10-05T06:45:03.271Z,10.32
2018-10-05T06:47:30.618Z,11.05
2018-10-05T06:49:57.931Z,8.68
2018-10-05T06:52:25.265Z,9.10
2018-10-05T06:54:52.596Z,8.50
2018-10-05T06:57:20.462Z,8.80
2018-10-05T06:59:47.829Z,8.50
2018-10-05T07:02:15.416Z,8.68
2018-10-05T07:04:43.102Z,9.75
2018-10-05T07:07:10.530Z,9.03
2018-10-05T07:09:37.964Z,7.90
2018-10-05T07:12:05.523Z,8.63
2018-10-05T07:14:32.929Z,8.20
2018-10-05T07:17:00.397Z,10.25
2018-10-05T07:19:28.091Z,8.98
2018-10-05T07:21:55.643Z,8.43
2018-10-05T07:24:23.311Z,9.03
2018-10-05T07:26:51.058Z,9.10
2018-10-05T07:29:18.445Z,8.23
2018-10-05T07:31:45.779Z,7.73
2018-10-05T07:34:13.543Z,7.57
2018-10-05T07:36:40.884Z,7.50
2018-10-05T07:39:08.772Z,7.50
2018-10-05T07:41:36.128Z,8.23
2018-10-05T07:46:37.506Z,8.00
2018-10-05T07:49:04.874Z,7.63
2018-10-05T07:51:32.258Z,7.50
2018-10-05T07:53:59.615Z,8.13
2018-10-05T07:56:27.156Z,7.33
2018-10-05T07:58:54.808Z,8.20
2018-10-05T08:01:22.329Z,8.10
2018-10-05T08:03:49.672Z,7.30
2018-10-05T08:06:17.021Z,7.87
2018-10-05T08:08:44.404Z,7.80
2018-10-05T08:11:12.110Z,8.00
2018-10-05T08:13:39.962Z,7.50
2018-10-05T08:16:07.438Z,6.53
2018-10-05T08:18:34.890Z,7.33
2018-10-05T08:21:02.480Z,7.90
2018-10-05T08:23:29.874Z,7.77
2018-10-05T08:25:57.262Z,7.47
2018-10-05T08:28:24.716Z,6.97
2018-10-05T08:30:52.080Z,8.10
2018-10-05T08:33:19.536Z,7.57
2018-10-05T08:35:46.929Z,7.47
2018-10-05T08:38:14.340Z,7.70
2018-10-05T08:40:41.741Z,6.80
2018-10-05T08:43:09.137Z,6.53
2018-10-05T08:45:36.567Z,8.10
2018-10-05T08:48:04.035Z,7.90
2018-10-05T08:50:31.699Z,7.10
2018-10-05T08:52:59.243Z,6.70
2018-10-05T08:55:26.820Z,6.13
2018-10-05T08:57:54.165Z,6.77
2018-10-05T09:00:21.607Z,6.90
2018-10-05T09:02:48.956Z,7.67
2018-10-05T09:05:16.536Z,6.47
2018-10-05T09:07:43.914Z,7.33
2018-10-05T09:10:11.235Z,6.97
2018-10-05T09:12:38.992Z,7.47
2018-10-05T09:15:06.433Z,6.27
2018-10-05T09:17:34.668Z,6.10
2018-10-05T09:20:02.334Z,6.23
2018-10-05T09:22:29.679Z,5.90
2018-10-05T09:24:59.906Z,6.23
2018-10-05T09:27:27.665Z,6.67
2018-10-05T09:29:55.528Z,5.77
2018-10-05T09:32:23.393Z,6.37
2018-10-05T09:34:51.041Z,6.43
2018-10-05T09:37:19.756Z,6.27
2018-10-05T09:39:48.375Z,6.60
2018-10-05T09:42:16.154Z,6.23
2018-10-05T09:44:43.553Z,6.30
2018-10-05T09:47:11.843Z,6.10
2018-10-05T09:49:40.864Z,5.73
2018-10-05T09:52:08.642Z,6.00
2018-10-05T09:54:36.543Z,6.00
2018-10-05T09:57:05.091Z,6.20
2018-10-05T09:59:32.670Z,5.43
2018-10-05T10:02:05.717Z,5.97
2018-10-05T10:04:33.343Z,6.33
2018-10-05T10:07:00.916Z,7.03
2018-10-05T10:09:29.425Z,5.83
2018-10-05T10:11:56.981Z,5.80
2018-10-05T10:14:24.579Z,6.40
2018-10-05T10:16:52.215Z,6.50
2018-10-05T10:19:20.627Z,5.73
2018-10-05T10:21:48.153Z,5.63
2018-10-05T10:24:15.442Z,5.43
2018-10-05T10:26:43.817Z,5.83
2018-10-05T10:29:12.735Z,6.07
2018-10-05T10:31:41.464Z,5.50
2018-10-05T10:34:10.172Z,5.57
2018-10-05T10:36:38.349Z,5.80
2018-10-05T10:39:06.683Z,5.80
2018-10-05T10:41:34.235Z,5.40
2018-10-05T10:44:02.157Z,5.50
2018-10-05T10:46:30.096Z,5.90
2018-10-05T10:48:58.130Z,6.40
2018-10-05T10:51:25.528Z,5.93
2018-10-05T10:53:52.879Z,6.10
2018-10-05T10:56:20.249Z,5.67
2018-10-05T10:58:47.531Z,5.43
2018-10-05T11:01:15.122Z,5.30
2018-10-05T11:03:42.445Z,5.67
2018-10-05T11:06:10.023Z,5.50
2018-10-05T11:08:37.370Z,6.27
2018-10-05T11:11:05.157Z,5.40
2018-10-05T11:13:32.616Z,5.53
2018-10-05T11:15:59.951Z,5.43
2018-10-05T11:18:27.315Z,5.63
2018-10-05T11:20:54.878Z,5.87
2018-10-05T11:23:23.017Z,4.90
2018-10-05T11:25:50.447Z,5.53
2018-10-05T11:28:17.745Z,5.27
2018-10-05T11:30:45.081Z,5.80
2018-10-05T11:33:12.532Z,5.50
2018-10-05T11:35:40.067Z,5.80
2018-10-05T11:38:07.665Z,4.60
2018-10-05T11:40:35.232Z,5.23
2018-10-05T11:43:02.584Z,5.83
2018-10-05T11:45:29.917Z,5.47
2018-10-05T11:47:57.751Z,5.23
2018-10-05T11:50:25.056Z,4.60
2018-10-05T11:52:52.921Z,5.10
2018-10-05T11:55:21.418Z,5.03
2018-10-05T11:57:48.772Z,5.10
2018-10-05T12:00:18.249Z,5.27
2018-10-05T12:02:46.315Z,5.07
2018-10-05T12:05:13.720Z,5.13
2018-10-05T12:07:41.104Z,5.33
2018-10-05T12:10:08.483Z,5.47
2018-10-05T12:12:35.805Z,5.33
2018-10-05T12:15:03.285Z,5.50
2018-10-05T12:17:31.056Z,5.03
2018-10-05T12:19:58.707Z,5.10
2018-10-05T12:22:26.063Z,4.70
2018-10-05T12:24:53.578Z,5.30
2018-10-05T12:27:20.926Z,4.90
2018-10-05T12:29:49.000Z,4.37
2018-10-05T12:32:16.382Z,4.40
2018-10-05T12:34:43.788Z,5.70
2018-10-05T12:37:11.394Z,4.73
2018-10-05T12:39:38.743Z,4.90
2018-10-05T12:42:06.637Z,4.57
2018-10-05T12:44:34.234Z,5.10
2018-10-05T12:47:01.623Z,4.63
2018-10-05T12:49:28.962Z,4.70
2018-10-05T12:51:56.291Z,5.63
2018-10-05T12:54:24.022Z,5.87
2018-10-05T12:56:51.403Z,5.00
2018-10-05T12:59:18.838Z,5.50
2018-10-05T13:01:46.435Z,4.57
2018-10-05T13:04:13.985Z,5.23
2018-10-05T13:06:41.764Z,4.97
2018-10-05T13:09:10.156Z,4.77
2018-10-05T13:11:38.219Z,5.80
2018-10-05T13:14:07.075Z,4.90
2018-10-05T13:16:35.516Z,5.10
2018-10-05T13:19:03.631Z,4.80
2018-10-05T13:21:31.067Z,5.37
2018-10-05T13:23:58.647Z,6.27
2018-10-05T13:26:26.175Z,5.97
2018-10-05T13:28:53.531Z,4.80
2018-10-05T13:31:21.057Z,5.50
2018-10-05T13:33:48.622Z,4.73
2018-10-05T13:36:16.283Z,4.60
2018-10-05T13:38:43.660Z,5.30
2018-10-05T13:41:10.963Z,5.23
2018-10-05T13:43:38.302Z,4.90
2018-10-05T13:46:05.621Z,5.80
2018-10-05T13:48:32.960Z,5.47
2018-10-05T13:51:00.294Z,5.00
2018-10-05T13:53:28.326Z,4.90
2018-10-05T13:55:55.680Z,4.70
2018-10-05T13:58:22.969Z,4.47
2018-10-05T14:00:50.307Z,4.87
2018-10-05T14:03:17.684Z,4.00
2018-10-05T14:05:45.011Z,4.47
2018-10-05T14:08:12.702Z,5.87
2018-10-05T14:10:40.134Z,5.60
2018-10-05T14:13:07.471Z,5.70
2018-10-05T14:15:35.023Z,5.57
2018-10-05T14:18:02.656Z,6.07
2018-10-05T14:20:30.261Z,5.40
2018-10-05T14:22:58.184Z,6.10
2018-10-05T14:25:26.053Z,5.30
2018-10-05T14:27:53.742Z,5.13
2018-10-05T14:30:21.835Z,5.20
2018-10-05T14:32:49.317Z,5.60
2018-10-05T14:35:16.982Z,4.90
2018-10-05T14:37:44.600Z,5.40
2018-10-05T14:40:12.195Z,5.17
2018-10-05T14:42:39.679Z,5.77
2018-10-05T14:45:07.491Z,5.20
2018-10-05T14:47:35.012Z,4.77
2018-10-05T14:50:02.476Z,5.33
2018-10-05T14:52:30.492Z,5.00
2018-10-05T14:54:57.855Z,5.20
2018-10-05T14:57:25.282Z,4.73
2018-10-05T14:59:53.715Z,5.73
2018-10-05T15:02:21.042Z,5.53
2018-10-05T15:04:49.013Z,5.00
2018-10-05T15:07:16.771Z,4.83
2018-10-05T15:09:44.299Z,4.93
2018-10-05T15:12:11.778Z,5.20
2018-10-05T15:14:40.195Z,5.30
2018-10-05T15:17:08.971Z,5.13
2018-10-05T15:19:37.625Z,5.20
2018-10-05T15:22:05.734Z,5.60
2018-10-05T15:24:34.047Z,6.00
2018-10-05T15:27:01.651Z,5.17
2018-10-05T15:29:29.647Z,4.93
2018-10-05T15:31:57.996Z,4.97
2018-10-05T15:34:25.369Z,5.73
2018-10-05T15:36:52.913Z,5.70
2018-10-05T15:39:20.458Z,4.83
2018-10-05T15:41:47.808Z,5.27
2018-10-05T15:44:16.446Z,5.50
2018-10-05T15:47:06.820Z,5.27
2018-10-05T15:49:36.427Z,4.97
2018-10-05T15:52:03.948Z,5.07
2018-10-05T15:54:32.638Z,5.13
2018-10-05T15:57:01.183Z,5.43
2018-10-05T15:59:29.039Z,4.57
2018-10-05T16:01:56.567Z,5.27
2018-10-05T16:04:24.542Z,4.53
2018-10-05T16:06:52.230Z,4.87
2018-10-05T16:09:20.276Z,5.20
2018-10-05T16:11:47.879Z,4.93
2018-10-05T16:14:15.266Z,5.90
2018-10-05T16:16:43.111Z,5.70
2018-10-05T16:19:14.500Z,4.80
2018-10-05T16:21:41.894Z,4.73
2018-10-05T16:24:11.539Z,4.93
2018-10-05T16:26:39.210Z,4.80
2018-10-05T16:29:07.221Z,4.60
2018-10-05T16:31:37.362Z,5.93
2018-10-05T16:34:05.858Z,5.47
2018-10-05T16:36:33.488Z,6.10
2018-10-05T16:39:00.861Z,5.57
2018-10-05T16:41:28.847Z,5.70
2018-10-05T16:43:56.289Z,5.10
2018-10-05T16:46:23.884Z,5.23
2018-10-05T16:48:51.246Z,5.65
2018-10-05T16:51:18.805Z,6.10
2018-10-05T16:53:46.576Z,6.35
2018-10-05T16:56:14.354Z,6.08
2018-10-05T16:58:41.655Z,6.10
2018-10-05T17:01:09.322Z,5.92
2018-10-05T17:03:37.435Z,7.10
2018-10-05T17:06:05.301Z,6.85
2018-10-05T17:08:35.155Z,7.33
2018-10-05T17:11:02.557Z,7.12
2018-10-05T17:13:29.845Z,7.35
2018-10-05T17:15:57.447Z,6.72
2018-10-05T17:18:25.260Z,7.15
2018-10-05T17:20:52.923Z,6.72
2018-10-05T17:23:20.202Z,7.55
2018-10-05T17:25:47.567Z,6.40
2018-10-05T17:28:14.914Z,7.10
2018-10-05T17:30:42.255Z,7.05
2018-10-05T17:33:09.576Z,8.20
2018-10-05T17:35:36.908Z,8.53
2018-10-05T17:38:04.315Z,8.23
2018-10-05T17:40:31.607Z,9.80
2018-10-05T17:42:58.932Z,7.70
2018-10-05T17:45:26.855Z,7.35
2018-10-05T17:47:54.390Z,9.20
2018-10-05T17:50:21.786Z,8.60
2018-10-05T17:52:49.121Z,8.80
2018-10-05T17:55:16.938Z,9.60
2018-10-05T17:57:44.466Z,8.73
2018-10-05T18:00:11.957Z,8.48
2018-10-05T18:02:39.256Z,7.35
2018-10-05T18:05:06.885Z,9.68
2018-10-05T18:07:34.453Z,9.20
2018-10-05T18:10:02.357Z,10.68
2018-10-05T18:12:29.939Z,11.55
2018-10-05T18:14:57.599Z,14.93
2018-10-05T18:17:24.918Z,10.95
2018-10-05T18:19:52.326Z,16.30
2018-10-05T18:22:19.764Z,17.60
2018-10-05T18:24:47.098Z,13.88
2018-10-05T18:27:14.447Z,14.50
2018-10-05T18:29:41.868Z,13.70
2018-10-05T18:32:09.231Z,13.40
2018-10-05T18:34:36.884Z,12.68
2018-10-05T18:37:04.253Z,14.00
2018-10-05T18:39:31.592Z,10.48
2018-10-05T18:41:59.157Z,10.40
2018-10-05T18:44:26.741Z,11.90
2018-10-05T18:46:54.572Z,10.50
2018-10-05T18:49:21.939Z,11.75
2018-10-05T18:51:49.433Z,11.10
2018-10-05T18:54:17.067Z,11.90
2018-10-05T18:56:49.940Z,11.25
2018-10-05T18:59:17.298Z,10.72
2018-10-05T19:01:44.774Z,11.20
2018-10-05T19:04:12.207Z,10.00
2018-10-05T19:06:39.813Z,11.30
2018-10-05T19:09:07.383Z,10.43
2018-10-05T19:11:35.716Z,10.68
2018-10-05T19:14:03.067Z,12.80
2018-10-05T19:16:30.485Z,11.40
2018-10-05T19:18:57.824Z,13.15
2018-10-05T19:21:25.227Z,12.30
2018-10-05T19:23:52.518Z,13.88
2018-10-05T19:26:20.218Z,12.63
2018-10-05T19:28:48.100Z,12.13
2018-10-05T19:31:15.759Z,12.63
2018-10-05T19:33:43.144Z,12.45
2018-10-05T19:36:10.492Z,11.33
2018-10-05T19:38:39.179Z,12.13
2018-10-05T19:41:06.728Z,10.68
2018-10-05T19:43:34.342Z,11.15
2018-10-05T19:46:01.971Z,11.30
2018-10-05T19:48:29.786Z,8.85
2018-10-05T19:53:41.363Z,8.90
2018-10-05T19:56:08.849Z,11.80
2018-10-05T19:58:36.543Z,13.50
2018-10-05T20:01:04.147Z,13.53
2018-10-05T20:03:31.668Z,8.33
2018-10-05T20:05:59.449Z,9.68
2018-10-05T20:08:26.980Z,6.78
2018-10-05T20:10:54.947Z,9.13
2018-10-05T20:13:23.004Z,10.15
2018-10-05T20:15:50.474Z,20.35
2018-10-05T20:18:17.995Z,35.05
2018-10-05T20:20:45.747Z,31.80
2018-10-05T20:23:13.426Z,20.80
2018-10-05T20:25:40.883Z,23.70
2018-10-05T20:28:08.425Z,23.32
2018-10-05T20:30:36.420Z,22.58
2018-10-05T20:33:04.244Z,24.85
2018-10-05T20:35:34.160Z,30.30
2018-10-05T20:38:03.572Z,28.73
2018-10-05T20:40:32.137Z,29.25
2018-10-05T20:43:01.639Z,32.90
2018-10-05T20:45:30.270Z,27.10
2018-10-05T20:47:58.065Z,22.20
2018-10-05T20:50:26.627Z,25.70
2018-10-05T20:52:57.203Z,32.17
2018-10-05T20:55:25.050Z,11.85
2018-10-05T20:57:53.131Z,21.73
2018-10-05T21:00:20.645Z,11.38
2018-10-05T21:02:49.502Z,19.65
2018-10-05T21:05:17.508Z,16.73
2018-10-05T21:07:46.393Z,16.00
2018-10-05T21:10:14.547Z,14.47
2018-10-05T21:12:45.208Z,13.25
2018-10-05T21:15:12.838Z,11.97
2018-10-05T21:17:40.635Z,12.90
2018-10-05T21:20:08.607Z,13.30
2018-10-05T21:22:38.543Z,10.45
2018-10-05T21:25:07.241Z,10.45
2018-10-05T21:27:35.154Z,8.65
2018-10-05T21:30:06.637Z,8.10
2018-10-05T21:32:35.481Z,10.43
2018-10-05T21:35:03.029Z,11.33
2018-10-05T21:37:38.899Z,11.20
2018-10-05T21:40:10.065Z,9.68
2018-10-05T21:42:42.221Z,11.65
2018-10-05T21:45:10.402Z,8.40
2018-10-05T21:47:39.600Z,9.88
2018-10-05T21:50:08.940Z,9.65
2018-10-05T21:52:37.263Z,9.43
2018-10-05T21:55:06.548Z,9.63
2018-10-05T21:57:34.213Z,9.28
2018-10-05T22:00:01.774Z,8.05
2018-10-05T22:02:35.815Z,8.38
2018-10-05T22:05:04.697Z,6.72
2018-10-05T22:07:32.481Z,7.10
2018-10-05T22:10:00.610Z,6.67
2018-10-05T22:12:28.832Z,6.25
2018-10-05T22:14:56.659Z,7.30
2018-10-05T22:17:25.791Z,6.67
2018-10-05T22:19:53.404Z,6.03
2018-10-05T22:22:21.027Z,7.65
2018-10-05T22:24:48.391Z,7.20
2018-10-05T22:27:15.992Z,7.20
2018-10-05T22:29:43.371Z,7.20
2018-10-05T22:32:10.692Z,7.37
2018-10-05T22:37:54.585Z,7.97
2018-10-05T22:40:22.454Z,7.90
2018-10-05T22:42:50.351Z,7.37
2018-10-05T22:45:18.134Z,7.75
2018-10-05T22:47:45.689Z,7.90
2018-10-05T22:50:13.842Z,8.93
2018-10-05T22:52:41.874Z,8.80
2018-10-05T22:55:09.511Z,7.95
2018-10-05T22:57:36.976Z,7.78
2018-10-05T23:00:04.786Z,8.18
2018-10-05T23:02:32.232Z,7.95
2018-10-05T23:04:59.629Z,7.35
2018-10-05T23:07:27.079Z,7.97
2018-10-05T23:09:54.393Z,7.85
2018-10-05T23:12:21.883Z,7.90
2018-10-05T23:14:49.190Z,7.62
2018-10-05T23:17:16.473Z,8.53
2018-10-05T23:19:43.764Z,8.60
2018-10-05T23:22:11.093Z,7.28
2018-10-05T23:24:38.482Z,7.33
2018-10-05T23:27:06.041Z,8.05
2018-10-05T23:29:45.099Z,7.87
2018-10-05T23:32:12.998Z,7.67
2018-10-05T23:34:40.583Z,7.33
2018-10-05T23:37:07.969Z,8.38
2018-10-05T23:39:35.251Z,7.67
2018-10-05T23:42:02.568Z,7.78
2018-10-05T23:44:29.813Z,7.05
2018-10-05T23:46:57.293Z,7.37
2018-10-05T23:49:24.583Z,7.62
2018-10-05T23:51:51.885Z,9.05
2018-10-05T23:54:19.229Z,7.20
2018-10-05T23:56:46.638Z,8.23
2018-10-05T23:59:14.031Z,8.25
